LGKF/EFL METAR and TAF weather

Enter ICAO airport designator
Station Type Date Time Source
LGKF METAR 2020/09/27 16:50 UTC NOAA

LGKF 271650Z 16009KT 9999 FEW015 23/17 Q1013


Station Type Date Time Source
LGKF Decoded METAR 2020/09/27 16:50 UTC NOAA

Kefalhnia Airport , Greece (LGKF) 38-07N 020-30E 22M
Sep 27, 2020 - 12:50 PM EDT / 2020.09.27 1650 UTC
Wind: from the SSE (160 degrees) at 10 MPH (9 KT):0
Visibility: greater than 7 mile(s):0
Sky conditions: mostly clear
Temperature: 73 F (23 C)
Dew Point: 62 F (17 C)
Relative Humidity: 68%
Pressure (altimeter): 29.91 in. Hg (1013 hPa)
ob: LGKF 271650Z 16009KT 9999 FEW015 23/17 Q1013
cycle: 17

Station Type Date Time Source
LGKF TAF 2011/03/20 15:06 UTC NOAA

TAF LGKF 201400Z 2015/2103 05012KT 9999 FEW020 SCT080 PROB30
TEMPO 2015/2003 6000 RA SCT020 BKN060 PROB30
TEMPO 2015/2021 4000 TSRA SCT015 FEW018CB BKN025

Example: see airport list